createdAt,value
2022-09-27T00:01:59.113Z,96078.47
2022-09-27T00:04:28.516Z,96078.28
2022-09-27T00:06:57.108Z,96081.72
2022-09-27T00:09:25.687Z,96094.75
2022-09-27T00:11:54.322Z,96086.28
2022-09-27T00:14:24.239Z,96084.88
2022-09-27T00:16:52.864Z,96078.31
2022-09-27T00:19:23.224Z,96080.50
2022-09-27T00:21:52.059Z,96089.63
2022-09-27T00:24:22.888Z,96088.06
2022-09-27T00:26:51.563Z,96087.78
2022-09-27T00:29:20.782Z,96090.44
2022-09-27T00:31:49.408Z,96092.97
2022-09-27T00:34:23.517Z,96099.72
2022-09-27T00:36:53.469Z,96097.53
2022-09-27T00:39:22.052Z,96081.06
2022-09-27T00:41:50.863Z,96095.50
2022-09-27T00:44:26.336Z,96108.66
2022-09-27T00:47:01.429Z,96113.34
2022-09-27T00:49:51.763Z,96110.88
2022-09-27T00:52:49.363Z,96104.75
2022-09-27T00:55:21.661Z,96101.94
2022-09-27T00:57:51.638Z,96112.91
2022-09-27T01:00:22.567Z,96099.44
2022-09-27T01:02:54.341Z,96107.59
2022-09-27T01:05:27.680Z,96105.06
2022-09-27T01:08:01.374Z,96103.03
2022-09-27T01:10:39.043Z,96096.41
2022-09-27T01:13:23.479Z,96102.03
2022-09-27T01:16:37.004Z,96111.56
2022-09-27T01:19:38.150Z,96118.63
2022-09-27T01:22:56.228Z,96115.78
2022-09-27T01:25:31.647Z,96117.66
2022-09-27T01:28:26.889Z,96119.66
2022-09-27T01:31:22.438Z,96132.88
2022-09-27T01:34:16.124Z,96129.13
2022-09-27T01:36:50.885Z,96129.25
2022-09-27T01:39:50.628Z,96122.03
2022-09-27T01:42:34.976Z,96133.75
2022-09-27T01:45:21.770Z,96126.47
2022-09-27T01:48:08.316Z,96125.97
2022-09-27T01:51:20.218Z,96134.47
2022-09-27T01:53:55.198Z,96137.75
2022-09-27T01:56:32.913Z,96139.13
2022-09-27T01:59:30.265Z,96131.06
2022-09-27T02:02:12.804Z,96124.41
2022-09-27T02:05:06.618Z,96127.41
2022-09-27T02:07:54.105Z,96132.97
2022-09-27T02:10:27.935Z,96128.47
2022-09-27T02:13:23.068Z,96122.19
2022-09-27T02:16:20.439Z,96129.59
2022-09-27T02:19:17.172Z,96127.50
2022-09-27T02:21:52.206Z,96129.88
2022-09-27T02:24:25.418Z,96124.59
2022-09-27T02:27:12.223Z,96123.06
2022-09-27T02:29:51.570Z,96128.22
2022-09-27T02:32:20.650Z,96126.53
2022-09-27T02:34:51.231Z,96118.38
2022-09-27T02:37:20.142Z,96126.59
2022-09-27T02:39:49.799Z,96129.06
2022-09-27T02:42:19.683Z,96135.41
2022-09-27T02:44:48.728Z,96127.31
2022-09-27T02:47:24.223Z,96128.66
2022-09-27T02:50:26.125Z,96126.63
2022-09-27T02:53:31.554Z,96132.44
2022-09-27T02:56:36.008Z,96140.16
2022-09-27T02:59:47.533Z,96135.59
2022-09-27T03:02:54.636Z,96139.06
2022-09-27T03:06:13.979Z,96138.25
2022-09-27T03:08:44.073Z,96150.31
2022-09-27T03:11:13.234Z,96143.19
2022-09-27T03:14:01.826Z,96147.50
2022-09-27T03:16:31.790Z,96143.78
2022-09-27T03:19:12.309Z,96152.59
2022-09-27T03:21:59.536Z,96156.91
2022-09-27T03:24:28.332Z,96160.25
2022-09-27T03:26:57.013Z,96161.16
2022-09-27T03:29:25.688Z,96154.72
2022-09-27T03:32:04.311Z,96154.53
2022-09-27T03:34:55.903Z,96164.50
2022-09-27T03:37:24.967Z,96157.47
2022-09-27T04:00:48.884Z,96155.91
2022-09-27T04:03:20.342Z,96154.94
2022-09-27T04:06:07.796Z,96146.94
2022-09-27T04:08:43.271Z,96146.59
2022-09-27T04:11:14.253Z,96154.16
2022-09-27T04:13:47.911Z,96158.88
2022-09-27T04:16:17.627Z,96158.75
2022-09-27T04:19:09.465Z,96160.47
2022-09-27T04:21:50.405Z,96159.97
2022-09-27T04:24:19.750Z,96159.41
2022-09-27T04:27:08.496Z,96154.56
2022-09-27T04:29:43.682Z,96159.81
2022-09-27T04:32:30.169Z,96150.09
2022-09-27T04:35:37.385Z,96151.78
2022-09-27T04:38:06.176Z,96146.88
2022-09-27T04:40:36.100Z,96158.03
2022-09-27T04:43:05.604Z,96156.00
2022-09-27T04:45:34.445Z,96154.84
2022-09-27T04:48:03.376Z,96156.19
2022-09-27T04:50:36.574Z,96157.44
2022-09-27T04:53:06.589Z,96163.81
2022-09-27T04:55:36.080Z,96162.50
2022-09-27T04:58:05.614Z,96158.94
2022-09-27T05:00:34.517Z,96160.84
2022-09-27T05:03:21.144Z,96169.69
2022-09-27T05:06:02.249Z,96172.16
2022-09-27T05:08:31.286Z,96172.47
2022-09-27T05:11:38.426Z,96178.16
2022-09-27T05:17:25.656Z,96160.63
2022-09-27T05:20:12.935Z,96173.75
2022-09-27T05:22:53.385Z,96164.25
2022-09-27T05:25:23.317Z,96175.09
2022-09-27T05:27:53.239Z,96165.97
2022-09-27T05:30:22.067Z,96173.53
2022-09-27T05:32:57.496Z,96165.59
2022-09-27T05:35:45.874Z,96169.50
2022-09-27T05:38:15.191Z,96174.94
2022-09-27T05:40:50.731Z,96164.91
2022-09-27T05:43:20.564Z,96168.38
2022-09-27T05:45:51.818Z,96154.56
2022-09-27T05:48:22.687Z,96166.59
2022-09-27T05:50:59.899Z,96167.63
2022-09-27T05:53:28.366Z,96164.72
2022-09-27T05:55:58.542Z,96170.59
2022-09-27T05:58:36.368Z,96164.22
2022-09-27T06:01:18.581Z,96171.41
2022-09-27T06:04:06.230Z,96167.41
2022-09-27T06:06:59.445Z,96161.88
2022-09-27T06:09:28.700Z,96162.78
2022-09-27T06:11:58.555Z,96167.72
2022-09-27T06:14:28.182Z,96165.88
2022-09-27T06:21:21.348Z,96159.91
2022-09-27T06:23:56.846Z,96156.66
2022-09-27T06:26:31.677Z,96156.56
2022-09-27T06:29:15.879Z,96143.75
2022-09-27T06:31:52.274Z,96153.66
2022-09-27T06:34:49.845Z,96162.47
2022-09-27T06:37:19.493Z,96157.66
2022-09-27T06:39:49.891Z,96156.88
2022-09-27T06:42:54.383Z,96165.47
2022-09-27T06:45:50.892Z,96157.34
2022-09-27T06:48:43.099Z,96149.56
2022-09-27T06:51:16.457Z,96155.50
2022-09-27T06:53:45.498Z,96147.34
2022-09-27T06:56:14.945Z,96147.34
2022-09-27T06:59:12.287Z,96149.88
2022-09-27T07:01:45.454Z,96146.66
2022-09-27T07:04:32.914Z,96148.22
2022-09-27T07:07:01.594Z,96146.44
2022-09-27T07:09:50.666Z,96138.28
2022-09-27T07:12:23.657Z,96126.38
2022-09-27T07:14:52.280Z,96134.84
2022-09-27T07:17:20.995Z,96128.03
2022-09-27T07:19:52.014Z,96132.03
2022-09-27T07:22:21.298Z,96123.03
2022-09-27T07:24:56.257Z,96124.81
2022-09-27T07:27:27.237Z,96128.47
2022-09-27T07:29:56.741Z,96121.22
2022-09-27T07:32:27.137Z,96113.75
2022-09-27T07:34:56.016Z,96112.03
2022-09-27T07:37:24.898Z,96123.41
2022-09-27T07:39:53.483Z,96120.06
2022-09-27T07:42:22.049Z,96118.19
2022-09-27T07:44:56.505Z,96107.16
2022-09-27T07:47:45.310Z,96106.94
2022-09-27T07:50:30.674Z,96110.53
2022-09-27T07:53:06.011Z,96107.25
2022-09-27T07:55:44.505Z,96100.47
2022-09-27T07:58:15.477Z,96099.34
2022-09-27T08:00:44.893Z,96097.16
2022-09-27T08:03:18.287Z,96098.03
2022-09-27T08:05:49.020Z,96090.00
2022-09-27T08:08:19.347Z,96085.41
2022-09-27T08:10:50.225Z,96091.44
2022-09-27T08:13:20.733Z,96084.09
2022-09-27T08:15:53.252Z,96088.53
2022-09-27T08:18:25.164Z,96086.88
2022-09-27T08:21:00.851Z,96089.66
2022-09-27T08:24:04.917Z,96087.06
2022-09-27T08:26:54.299Z,96086.84
2022-09-27T08:29:32.805Z,96085.06
2022-09-27T08:32:01.826Z,96086.63
2022-09-27T08:34:30.569Z,96073.31
2022-09-27T08:36:59.874Z,96087.50
2022-09-27T08:39:28.723Z,96077.88
2022-09-27T08:42:19.159Z,96078.09
2022-09-27T08:45:03.424Z,96075.88
2022-09-27T08:47:55.741Z,96082.91
2022-09-27T08:50:30.268Z,96072.56
2022-09-27T08:53:15.197Z,96078.81
2022-09-27T08:56:01.559Z,96083.63
2022-09-27T08:58:40.390Z,96074.94
2022-09-27T09:01:20.893Z,96065.91
2022-09-27T09:04:04.765Z,96076.72
2022-09-27T09:06:55.785Z,96080.06
2022-09-27T09:09:33.560Z,96077.94
2022-09-27T09:12:49.415Z,96068.69
2022-09-27T09:16:19.067Z,96068.69
2022-09-27T09:19:06.595Z,96067.44
2022-09-27T09:22:29.338Z,96066.00
2022-09-27T09:25:04.847Z,96047.59
2022-09-27T09:27:45.822Z,96054.06
2022-09-27T09:30:25.630Z,96055.28
2022-09-27T09:33:16.423Z,96053.16
2022-09-27T09:36:33.529Z,96051.25
2022-09-27T09:39:37.389Z,96054.16
2022-09-27T09:42:12.206Z,96052.88
2022-09-27T09:44:45.937Z,96057.00
2022-09-27T09:47:33.331Z,96051.53
2022-09-27T09:50:08.288Z,96043.41
2022-09-27T09:52:47.091Z,96048.50
2022-09-27T09:55:30.369Z,96045.19
2022-09-27T09:58:29.703Z,96039.03
2022-09-27T10:01:25.877Z,96046.81
2022-09-27T10:03:58.439Z,96045.91
2022-09-27T10:06:29.453Z,96033.28
2022-09-27T10:09:00.265Z,96041.75
2022-09-27T10:11:47.267Z,96046.19
2022-09-27T10:14:24.510Z,96052.63
2022-09-27T10:17:03.111Z,96038.69
2022-09-27T10:19:35.261Z,96045.91
2022-09-27T10:22:33.819Z,96040.47
2022-09-27T10:25:11.627Z,96048.91
2022-09-27T10:28:02.994Z,96042.00
2022-09-27T10:30:38.984Z,96040.31
2022-09-27T10:33:20.300Z,96034.97
2022-09-27T10:36:02.410Z,96032.16
2022-09-27T10:38:37.603Z,96032.06
2022-09-27T10:41:38.173Z,96026.44
2022-09-27T10:44:16.355Z,96025.47
2022-09-27T10:46:51.598Z,96021.56
2022-09-27T10:49:42.652Z,96023.00
2022-09-27T10:52:30.393Z,96021.00
2022-09-27T10:54:59.243Z,96017.41
2022-09-27T10:57:30.948Z,96013.38
2022-09-27T11:00:09.331Z,96011.22
2022-09-27T11:02:42.110Z,96003.28
2022-09-27T11:05:28.266Z,96010.69
2022-09-27T11:07:59.482Z,96015.56
2022-09-27T11:11:20.382Z,96014.81
2022-09-27T11:14:25.792Z,96016.88
2022-09-27T11:17:19.307Z,96001.81
2022-09-27T11:20:02.259Z,96002.03
2022-09-27T11:22:53.426Z,96006.91
2022-09-27T11:26:04.691Z,96001.41
2022-09-27T11:29:03.413Z,96006.63
2022-09-27T11:32:28.409Z,96007.25
2022-09-27T11:35:20.246Z,96017.34
2022-09-27T11:38:40.698Z,96015.50
2022-09-27T11:41:23.681Z,96021.22
2022-09-27T11:44:47.552Z,96017.63
2022-09-27T11:47:37.376Z,96020.69
2022-09-27T11:50:47.543Z,96018.03
2022-09-27T11:53:53.614Z,96029.66
2022-09-27T11:56:44.760Z,96028.91
2022-09-27T11:59:43.674Z,96024.25
2022-09-27T12:02:39.322Z,96037.88
2022-09-27T12:05:20.467Z,96028.34
2022-09-27T12:08:16.492Z,96014.88
2022-09-27T12:10:53.963Z,96032.41
2022-09-27T12:14:09.466Z,96057.31
2022-09-27T12:16:42.087Z,96046.50
2022-09-27T12:19:23.763Z,96055.28
2022-09-27T12:22:05.512Z,96049.97
2022-09-27T12:24:41.350Z,96048.38
2022-09-27T12:28:07.492Z,96060.75
2022-09-27T12:30:42.239Z,96043.06
2022-09-27T12:33:30.925Z,96052.44
2022-09-27T12:36:27.777Z,96039.78
2022-09-27T12:39:12.702Z,96056.19
2022-09-27T12:41:50.347Z,96044.94
2022-09-27T12:44:53.093Z,96044.31
2022-09-27T12:48:04.078Z,96044.13
2022-09-27T12:50:43.587Z,96042.91
2022-09-27T12:53:41.880Z,96041.16
2022-09-27T12:56:57.928Z,96040.84
2022-09-27T12:59:50.817Z,96037.69
2022-09-27T13:03:15.101Z,96026.56
2022-09-27T13:06:26.639Z,96027.81
2022-09-27T13:09:19.550Z,96016.25
2022-09-27T13:12:03.979Z,96005.59
2022-09-27T13:14:40.091Z,95993.22
2022-09-27T13:17:52.747Z,95998.53
2022-09-27T13:21:02.661Z,95986.34
2022-09-27T13:23:55.203Z,95989.94
2022-09-27T13:26:47.541Z,95989.16
2022-09-27T13:29:27.306Z,95992.00
2022-09-27T13:31:58.384Z,95995.44
2022-09-27T13:34:45.125Z,95993.09
2022-09-27T13:38:08.322Z,95992.59
2022-09-27T13:40:50.479Z,95988.84
2022-09-27T13:43:28.341Z,95987.28
2022-09-27T13:46:16.439Z,95979.13
2022-09-27T13:49:20.389Z,95982.88
2022-09-27T13:52:20.390Z,95979.44
2022-09-27T13:54:55.545Z,95976.78
2022-09-27T13:57:54.547Z,95978.97
2022-09-27T14:00:44.243Z,95957.69
2022-09-27T14:03:51.011Z,95965.97
2022-09-27T14:06:51.340Z,95959.88
2022-09-27T14:09:28.305Z,95943.00
2022-09-27T14:13:19.658Z,95940.34
2022-09-27T14:16:02.969Z,95936.72
2022-09-27T14:19:23.266Z,95933.59
2022-09-27T14:21:57.779Z,95923.91
2022-09-27T14:24:41.047Z,95929.53
2022-09-27T14:27:41.080Z,95916.38
2022-09-27T14:30:30.983Z,95917.94
2022-09-27T14:33:32.926Z,95920.59
2022-09-27T14:36:27.928Z,95911.38
2022-09-27T14:39:31.706Z,95911.38
2022-09-27T14:42:05.999Z,95903.09
2022-09-27T14:44:36.155Z,95917.63
2022-09-27T14:47:25.987Z,95914.50
2022-09-27T14:50:20.642Z,95915.25
2022-09-27T14:52:50.401Z,95914.03
2022-09-27T14:55:26.786Z,95914.97
2022-09-27T14:58:00.102Z,95910.13
2022-09-27T15:00:33.340Z,95898.22
2022-09-27T15:03:05.584Z,95902.47
2022-09-27T15:05:36.703Z,95908.09
2022-09-27T15:08:07.049Z,95902.47
2022-09-27T15:10:37.820Z,95892.31
2022-09-27T15:13:07.459Z,95886.03
2022-09-27T15:15:40.245Z,95884.19
2022-09-27T15:18:32.281Z,95869.94
2022-09-27T15:21:02.036Z,95868.22
2022-09-27T15:23:40.799Z,95869.00
2022-09-27T15:26:20.166Z,95865.88
2022-09-27T15:28:52.733Z,95866.34
2022-09-27T15:31:36.474Z,95866.50
2022-09-27T15:34:10.323Z,95871.22
2022-09-27T15:36:56.306Z,95878.56
2022-09-27T15:39:35.695Z,95874.81
2022-09-27T15:42:11.017Z,95868.41
2022-09-27T15:44:53.670Z,95869.34
2022-09-27T15:47:39.151Z,95860.28
2022-09-27T15:50:17.118Z,95861.06
2022-09-27T15:52:48.301Z,95859.19
2022-09-27T15:55:23.302Z,95840.59
2022-09-27T15:58:02.664Z,95849.34
2022-09-27T16:00:32.338Z,95831.03
2022-09-27T16:03:01.216Z,95822.63
2022-09-27T16:05:30.979Z,95818.56
2022-09-27T16:07:59.962Z,95810.75
2022-09-27T16:10:37.320Z,95818.06
2022-09-27T16:13:06.243Z,95813.25
2022-09-27T16:15:35.416Z,95811.69
2022-09-27T16:18:04.575Z,95820.41
2022-09-27T16:20:33.269Z,95813.09
2022-09-27T16:23:02.757Z,95805.25
2022-09-27T16:25:31.674Z,95808.84
2022-09-27T16:28:01.381Z,95812.94
2022-09-27T16:30:30.683Z,95806.34
2022-09-27T16:32:59.812Z,95808.41
2022-09-27T16:35:28.923Z,95799.47
2022-09-27T16:37:58.852Z,95803.22
2022-09-27T16:40:28.712Z,95776.50
2022-09-27T16:42:57.358Z,95786.97
2022-09-27T16:45:30.732Z,95766.66
2022-09-27T16:48:01.705Z,95759.00
2022-09-27T16:50:48.896Z,95754.00
2022-09-27T16:53:17.562Z,95743.38
2022-09-27T16:55:46.255Z,95744.00
2022-09-27T16:58:15.199Z,95731.22
2022-09-27T17:00:44.612Z,95733.22
2022-09-27T17:03:13.329Z,95732.94
2022-09-27T17:05:42.029Z,95735.88
2022-09-27T17:08:10.996Z,95725.88
2022-09-27T17:10:45.650Z,95712.59
2022-09-27T17:13:14.484Z,95706.19
2022-09-27T17:15:43.430Z,95711.63
2022-09-27T17:18:14.210Z,95705.72
2022-09-27T17:20:43.286Z,95707.25
2022-09-27T17:23:12.173Z,95706.28
2022-09-27T17:25:41.396Z,95693.31
2022-09-27T17:28:10.000Z,95688.59
2022-09-27T17:30:46.342Z,95682.53
2022-09-27T17:33:15.100Z,95678.28
2022-09-27T17:35:44.822Z,95671.88
2022-09-27T17:38:13.448Z,95661.25
2022-09-27T17:40:42.208Z,95658.75
2022-09-27T17:43:11.562Z,95659.84
2022-09-27T17:45:40.134Z,95666.13
2022-09-27T17:48:27.478Z,95655.81
2022-09-27T17:50:56.075Z,95661.25
2022-09-27T17:53:24.996Z,95660.19
2022-09-27T17:55:55.084Z,95644.38
2022-09-27T17:58:23.712Z,95648.44
2022-09-27T18:00:53.273Z,95647.03
2022-09-27T18:03:22.094Z,95644.34
2022-09-27T18:05:50.728Z,95647.47
2022-09-27T18:08:19.324Z,95644.16
2022-09-27T18:10:48.724Z,95642.44
2022-09-27T18:14:33.263Z,95643.69
2022-09-27T18:17:02.244Z,95633.97
2022-09-27T18:19:30.868Z,95640.97
2022-09-27T18:22:01.226Z,95647.09
2022-09-27T18:24:30.545Z,95653.16
2022-09-27T18:27:00.246Z,95646.75
2022-09-27T18:29:29.624Z,95655.81
2022-09-27T18:31:58.226Z,95650.94
2022-09-27T18:34:27.325Z,95640.94
2022-09-27T18:36:55.956Z,95637.13
2022-09-27T18:39:25.315Z,95638.06
2022-09-27T18:41:55.872Z,95642.72
2022-09-27T18:44:24.564Z,95638.19
2022-09-27T18:46:53.157Z,95627.22
2022-09-27T18:49:26.236Z,95626.44
2022-09-27T18:51:57.363Z,95624.75
2022-09-27T18:54:26.957Z,95613.84
2022-09-27T18:56:55.506Z,95621.81
2022-09-27T18:59:24.586Z,95615.25
2022-09-27T19:01:53.691Z,95629.34
2022-09-27T19:04:25.449Z,95621.84
2022-09-27T19:06:55.639Z,95633.09
2022-09-27T19:09:26.791Z,95621.25
2022-09-27T19:11:55.548Z,95620.44
2022-09-27T19:14:24.226Z,95620.75
2022-09-27T19:16:53.021Z,95610.78
2022-09-27T19:19:22.590Z,95601.06
2022-09-27T19:21:51.231Z,95591.84
2022-09-27T19:24:19.782Z,95588.53
2022-09-27T19:26:48.654Z,95587.44
2022-09-27T19:29:17.321Z,95593.66
2022-09-27T19:31:45.994Z,95577.53
2022-09-27T19:34:15.351Z,95575.31
2022-09-27T19:36:43.945Z,95575.31
2022-09-27T19:39:12.609Z,95577.97
2022-09-27T19:41:41.405Z,95572.31
2022-09-27T19:44:10.250Z,95571.03
2022-09-27T19:46:40.170Z,95559.50
2022-09-27T19:49:08.807Z,95562.06
2022-09-27T19:51:37.994Z,95560.84
2022-09-27T19:54:06.999Z,95567.28
2022-09-27T19:56:35.508Z,95565.06
2022-09-27T19:59:15.868Z,95554.59
2022-09-27T20:01:44.898Z,95568.13
2022-09-27T20:04:13.742Z,95574.88
2022-09-27T20:06:42.353Z,95574.09
2022-09-27T20:09:11.638Z,95572.34
2022-09-27T20:11:40.225Z,95575.16
2022-09-27T20:14:08.828Z,95582.91
2022-09-27T20:16:41.234Z,95579.72
2022-09-27T20:19:10.786Z,95586.16
2022-09-27T20:21:39.411Z,95596.19
2022-09-27T20:24:08.126Z,95596.94
2022-09-27T20:26:38.304Z,95603.38
2022-09-27T20:29:08.329Z,95597.72
2022-09-27T20:31:46.432Z,95582.06
2022-09-27T20:34:28.588Z,95590.56
2022-09-27T20:36:57.165Z,95586.94
2022-09-27T20:39:26.079Z,95586.81
2022-09-27T20:41:55.110Z,95587.59
2022-09-27T20:44:23.703Z,95587.28
2022-09-27T20:46:52.277Z,95587.13
2022-09-27T20:49:21.126Z,95573.41
2022-09-27T20:51:50.035Z,95574.16
2022-09-27T20:54:18.905Z,95573.59
2022-09-27T20:56:49.327Z,95569.03
2022-09-27T20:59:19.797Z,95564.19
2022-09-27T21:01:50.884Z,95561.84
2022-09-27T21:04:21.833Z,95565.28
2022-09-27T21:06:50.554Z,95561.19
2022-09-27T21:09:20.194Z,95560.38
2022-09-27T21:11:52.240Z,95567.59
2022-09-27T21:14:21.180Z,95571.94
2022-09-27T21:16:49.788Z,95570.84
2022-09-27T21:19:18.488Z,95569.41
2022-09-27T21:21:47.418Z,95564.41
2022-09-27T21:24:16.289Z,95566.00
2022-09-27T21:26:46.252Z,95557.22
2022-09-27T21:29:15.241Z,95568.66
2022-09-27T21:31:44.041Z,95569.41
2022-09-27T21:34:12.655Z,95568.19
2022-09-27T21:36:41.953Z,95561.75
2022-09-27T21:39:11.291Z,95567.22
2022-09-27T21:41:39.975Z,95556.56
2022-09-27T21:44:08.926Z,95561.91
2022-09-27T21:46:41.161Z,95571.75
2022-09-27T21:49:11.499Z,95565.66
2022-09-27T21:51:43.345Z,95574.09
2022-09-27T21:54:15.764Z,95560.44
2022-09-27T21:56:44.743Z,95568.91
2022-09-27T21:59:19.077Z,95566.75
2022-09-27T22:01:48.756Z,95568.13
2022-09-27T22:04:18.299Z,95555.59
2022-09-27T22:06:46.981Z,95552.59
2022-09-27T22:09:17.659Z,95555.25
2022-09-27T22:11:47.956Z,95553.91
2022-09-27T22:14:19.346Z,95561.44
2022-09-27T22:16:48.695Z,95566.00
2022-09-27T22:19:17.535Z,95545.72
2022-09-27T22:21:46.229Z,95562.84
2022-09-27T22:24:18.780Z,95569.28
2022-09-27T22:26:51.151Z,95572.94
2022-09-27T22:29:19.868Z,95565.47
2022-09-27T22:31:48.692Z,95562.88
2022-09-27T22:34:29.343Z,95568.81
2022-09-27T22:37:01.358Z,95561.50
2022-09-27T22:39:30.043Z,95557.59
2022-09-27T22:41:59.325Z,95547.59
2022-09-27T22:44:27.917Z,95561.81
2022-09-27T22:46:56.479Z,95570.91
2022-09-27T22:49:25.211Z,95555.13
2022-09-27T22:51:54.321Z,95547.78
2022-09-27T22:54:23.587Z,95540.47
2022-09-27T22:56:57.579Z,95539.38
2022-09-27T22:59:27.613Z,95535.00
2022-09-27T23:01:57.298Z,95537.41
2022-09-27T23:04:25.923Z,95536.81
2022-09-27T23:06:55.331Z,95534.53
2022-09-27T23:09:23.880Z,95522.53
2022-09-27T23:11:54.110Z,95527.69
2022-09-27T23:14:23.756Z,95514.47
2022-09-27T23:16:53.631Z,95527.16
2022-09-27T23:19:23.739Z,95519.38
2022-09-27T23:21:52.418Z,95502.34
2022-09-27T23:24:21.699Z,95509.09
2022-09-27T23:27:10.276Z,95513.81
2022-09-27T23:29:39.869Z,95501.19
2022-09-27T23:32:08.528Z,95507.91
2022-09-27T23:34:37.076Z,95509.94
2022-09-27T23:37:06.482Z,95501.06
2022-09-27T23:39:35.301Z,95495.59
2022-09-27T23:42:04.107Z,95482.69
2022-09-27T23:44:32.822Z,95494.50
2022-09-27T23:47:02.795Z,95495.44
2022-09-27T23:49:32.654Z,95503.75
2022-09-27T23:52:01.724Z,95497.97
2022-09-27T23:54:31.400Z,95490.94
2022-09-27T23:57:00.097Z,95485.34
2022-09-27T23:59:29.076Z,95492.22
